createdAt,value
2022-09-21T00:00:17.023Z,4.63
2022-09-21T00:01:16.513Z,4.60
2022-09-21T00:02:16.998Z,4.61
2022-09-21T00:03:16.577Z,4.61
2022-09-21T00:04:17.035Z,4.64
2022-09-21T00:05:16.490Z,4.63
2022-09-21T00:06:16.944Z,4.57
2022-09-21T00:07:16.376Z,4.58
2022-09-21T00:08:16.811Z,4.58
2022-09-21T00:09:17.245Z,4.58
2022-09-21T00:10:17.062Z,4.61
2022-09-21T00:11:16.540Z,4.61
2022-09-21T00:12:17.248Z,4.58
2022-09-21T00:13:16.682Z,4.60
2022-09-21T00:14:17.135Z,4.69
2022-09-21T00:15:16.603Z,4.65
2022-09-21T00:16:17.235Z,4.65
2022-09-21T00:17:16.890Z,4.67
2022-09-21T00:18:16.357Z,4.67
2022-09-21T00:19:16.853Z,4.64
2022-09-21T00:20:16.324Z,4.64
2022-09-21T00:21:16.786Z,4.64
2022-09-21T00:22:16.654Z,4.63
2022-09-21T00:23:17.109Z,4.68
2022-09-21T00:24:16.528Z,4.71
2022-09-21T00:25:16.954Z,4.74
2022-09-21T00:26:16.390Z,4.75
2022-09-21T00:27:16.823Z,4.75
2022-09-21T00:28:17.262Z,4.78
2022-09-21T00:29:16.717Z,4.75
2022-09-21T00:30:17.209Z,4.75
2022-09-21T00:31:16.672Z,4.89
2022-09-21T00:32:16.711Z,4.86
2022-09-21T00:33:17.194Z,4.78
2022-09-21T00:34:16.695Z,4.78
2022-09-21T00:35:17.162Z,4.78
2022-09-21T00:36:16.623Z,4.76
2022-09-21T00:37:17.044Z,4.82
2022-09-21T00:38:16.466Z,4.81
2022-09-21T00:39:16.896Z,4.79
2022-09-21T00:40:16.349Z,4.81
2022-09-21T00:41:16.919Z,4.76
2022-09-21T00:42:16.287Z,4.82
2022-09-21T00:43:16.722Z,4.82
2022-09-21T00:44:17.207Z,4.88
2022-09-21T00:45:16.687Z,4.78
2022-09-21T00:46:17.150Z,4.78
2022-09-21T00:47:16.640Z,4.78
2022-09-21T00:48:17.086Z,5.75
2022-09-21T00:49:16.591Z,4.84
2022-09-21T00:50:17.075Z,4.82
2022-09-21T00:51:16.512Z,4.85
2022-09-21T00:52:17.149Z,4.84
2022-09-21T00:53:16.564Z,4.85
2022-09-21T00:54:16.983Z,4.81
2022-09-21T00:55:16.440Z,4.82
2022-09-21T00:56:16.855Z,4.79
2022-09-21T00:57:17.281Z,4.85
2022-09-21T00:58:16.718Z,4.84
2022-09-21T00:59:19.928Z,4.89
2022-09-21T01:00:16.716Z,4.89
2022-09-21T01:01:17.208Z,4.91
2022-09-21T01:02:16.816Z,4.93
2022-09-21T01:03:16.359Z,4.99
2022-09-21T01:04:16.818Z,4.99
2022-09-21T01:05:17.289Z,4.91
2022-09-21T01:06:16.715Z,4.91
2022-09-21T01:07:17.159Z,4.99
2022-09-21T01:08:16.571Z,4.95
2022-09-21T01:09:16.996Z,4.88
2022-09-21T01:10:16.471Z,4.91
2022-09-21T01:11:16.946Z,4.91
2022-09-21T01:12:17.238Z,4.93
2022-09-21T01:13:16.682Z,4.93
2022-09-21T01:14:17.166Z,5.02
2022-09-21T01:15:16.639Z,5.02
2022-09-21T01:16:17.131Z,5.06
2022-09-21T01:17:16.657Z,5.05
2022-09-21T01:18:17.098Z,5.05
2022-09-21T01:19:16.558Z,4.93
2022-09-21T01:20:17.038Z,4.96
2022-09-21T01:21:16.458Z,4.96
2022-09-21T01:22:17.248Z,4.96
2022-09-21T01:23:16.675Z,5.96
2022-09-21T01:24:17.094Z,5.03
2022-09-21T01:25:16.527Z,5.00
2022-09-21T01:26:16.980Z,5.03
2022-09-21T01:27:16.399Z,5.03
2022-09-21T01:28:16.858Z,5.06
2022-09-21T01:29:16.326Z,5.06
2022-09-21T01:30:16.785Z,5.06
2022-09-21T01:31:17.279Z,5.89
2022-09-21T01:32:16.755Z,5.90
2022-09-21T01:33:17.218Z,5.92
2022-09-21T01:34:16.659Z,5.12
2022-09-21T01:35:17.103Z,5.02
2022-09-21T01:36:16.556Z,5.02
2022-09-21T01:37:16.972Z,5.02
2022-09-21T01:38:16.402Z,5.06
2022-09-21T01:39:16.845Z,5.06
2022-09-21T01:40:17.302Z,5.06
2022-09-21T01:41:16.781Z,5.03
2022-09-21T01:42:16.451Z,5.03
2022-09-21T01:43:16.928Z,5.03
2022-09-21T01:44:16.371Z,5.96
2022-09-21T01:45:16.825Z,5.16
2022-09-21T01:46:16.301Z,5.16
2022-09-21T01:47:16.751Z,5.16
2022-09-21T01:48:17.213Z,5.10
2022-09-21T01:49:16.668Z,5.10
2022-09-21T01:50:17.110Z,5.10
2022-09-21T01:51:16.546Z,5.85
2022-09-21T01:52:16.947Z,5.00
2022-09-21T01:53:16.367Z,5.00
2022-09-21T01:54:16.835Z,5.00
2022-09-21T01:55:17.249Z,5.90
2022-09-21T01:56:16.679Z,5.12
2022-09-21T01:57:17.102Z,5.16
2022-09-21T01:58:16.590Z,5.16
2022-09-21T01:59:17.051Z,5.16
2022-09-21T02:00:16.516Z,5.97
2022-09-21T02:01:17.026Z,5.96
2022-09-21T02:02:16.672Z,5.17
2022-09-21T02:03:17.207Z,5.17
2022-09-21T02:04:16.636Z,5.17
2022-09-21T02:05:17.063Z,5.26
2022-09-21T02:06:16.508Z,5.23
2022-09-21T02:07:16.937Z,5.23
2022-09-21T02:08:16.370Z,5.28
2022-09-21T02:09:16.807Z,5.28
2022-09-21T02:10:17.286Z,5.30
2022-09-21T02:11:16.711Z,5.30
2022-09-21T02:12:19.034Z,5.30
2022-09-21T02:13:16.903Z,6.12
2022-09-21T02:14:16.369Z,6.10
2022-09-21T02:15:16.840Z,5.35
2022-09-21T02:16:16.315Z,5.38
2022-09-21T02:17:16.831Z,5.38
2022-09-21T02:18:17.266Z,5.40
2022-09-21T02:19:16.708Z,5.40
2022-09-21T02:20:17.171Z,5.47
2022-09-21T02:21:16.586Z,5.47
2022-09-21T02:22:16.884Z,5.48
2022-09-21T02:23:16.318Z,5.48
2022-09-21T02:24:16.751Z,5.58
2022-09-21T02:25:17.179Z,5.55
2022-09-21T02:26:16.619Z,5.54
2022-09-21T02:27:17.080Z,5.55
2022-09-21T02:28:16.577Z,5.55
2022-09-21T02:29:17.056Z,5.55
2022-09-21T02:30:16.534Z,5.55
2022-09-21T02:31:17.840Z,5.52
2022-09-21T02:32:16.756Z,5.52
2022-09-21T02:33:17.204Z,5.58
2022-09-21T02:34:16.636Z,5.52
2022-09-21T02:35:17.062Z,5.55
2022-09-21T02:36:16.512Z,5.55
2022-09-21T02:37:16.979Z,5.55
2022-09-21T02:38:16.434Z,5.57
2022-09-21T02:39:16.850Z,5.57
2022-09-21T02:40:17.324Z,5.51
2022-09-21T02:41:16.807Z,5.54
2022-09-21T02:42:16.753Z,5.54
2022-09-21T02:43:17.206Z,5.55
2022-09-21T02:44:16.679Z,5.55
2022-09-21T02:45:17.132Z,5.55
2022-09-21T02:46:16.693Z,5.57
2022-09-21T02:47:17.271Z,5.61
2022-09-21T02:48:16.757Z,5.58
2022-09-21T02:49:17.211Z,5.57
2022-09-21T02:50:16.663Z,5.57
2022-09-21T02:51:17.082Z,5.65
2022-09-21T02:52:16.621Z,5.60
2022-09-21T02:53:17.078Z,5.52
2022-09-21T02:54:16.492Z,5.55
2022-09-21T02:55:16.951Z,5.50
2022-09-21T02:56:16.372Z,5.55
2022-09-21T02:57:16.811Z,5.48
2022-09-21T02:58:17.243Z,5.48
2022-09-21T02:59:16.728Z,5.48
2022-09-21T03:00:17.212Z,5.54
2022-09-21T03:01:16.654Z,5.50
2022-09-21T03:02:16.579Z,5.48
2022-09-21T03:03:17.050Z,5.44
2022-09-21T03:04:16.536Z,5.47
2022-09-21T03:05:17.014Z,5.44
2022-09-21T03:06:16.470Z,5.44
2022-09-21T03:07:16.899Z,5.50
2022-09-21T03:08:16.314Z,5.48
2022-09-21T03:09:16.743Z,5.48
2022-09-21T03:10:17.226Z,5.52
2022-09-21T03:11:16.659Z,5.50
2022-09-21T03:12:17.184Z,5.43
2022-09-21T03:13:16.636Z,5.40
2022-09-21T03:14:17.075Z,5.45
2022-09-21T03:15:16.527Z,5.48
2022-09-21T03:16:16.975Z,5.57
2022-09-21T03:17:16.491Z,5.43
2022-09-21T03:18:16.966Z,5.47
2022-09-21T03:19:16.401Z,5.40
2022-09-21T03:20:16.846Z,5.45
2022-09-21T03:21:17.259Z,5.43
2022-09-21T03:22:16.976Z,5.40
2022-09-21T03:23:16.393Z,5.37
2022-09-21T03:24:16.848Z,5.26
2022-09-21T03:25:17.312Z,5.31
2022-09-21T03:26:16.734Z,5.28
2022-09-21T03:27:17.181Z,5.27
2022-09-21T03:28:16.618Z,5.27
2022-09-21T03:29:17.061Z,5.34
2022-09-21T03:30:16.547Z,5.35
2022-09-21T03:31:17.083Z,5.35
2022-09-21T03:32:16.747Z,5.28
2022-09-21T03:33:17.215Z,5.27
2022-09-21T03:34:16.660Z,5.26
2022-09-21T03:35:17.160Z,5.22
2022-09-21T03:36:16.603Z,5.19
2022-09-21T03:37:17.067Z,5.19
2022-09-21T03:38:16.485Z,5.19
2022-09-21T03:39:16.952Z,5.26
2022-09-21T03:40:16.439Z,5.22
2022-09-21T03:41:16.982Z,5.16
2022-09-21T03:42:16.733Z,5.20
2022-09-21T03:43:17.190Z,5.19
2022-09-21T03:44:16.631Z,5.17
2022-09-21T03:45:17.083Z,5.22
2022-09-21T03:46:16.619Z,5.16
2022-09-21T03:47:17.126Z,5.20
2022-09-21T03:48:16.563Z,5.19
2022-09-21T03:49:17.030Z,5.07
2022-09-21T03:50:16.484Z,5.09
2022-09-21T03:51:16.911Z,5.05
2022-09-21T03:52:16.555Z,4.99
2022-09-21T03:53:16.996Z,4.96
2022-09-21T03:54:16.426Z,5.06
2022-09-21T03:55:16.860Z,4.86
2022-09-21T03:56:16.332Z,4.84
2022-09-21T03:57:16.840Z,4.92
2022-09-21T03:58:16.308Z,4.98
2022-09-21T03:59:16.759Z,5.06
2022-09-21T04:00:17.234Z,5.03
2022-09-21T04:01:16.751Z,5.06
2022-09-21T04:02:16.809Z,5.03
2022-09-21T04:03:16.415Z,4.92
2022-09-21T04:04:16.894Z,4.88
2022-09-21T04:05:16.344Z,4.93
2022-09-21T04:06:16.759Z,4.98
2022-09-21T04:07:17.197Z,5.00
2022-09-21T04:08:16.652Z,4.92
2022-09-21T04:09:17.067Z,4.85
2022-09-21T04:10:16.508Z,4.99
2022-09-21T04:11:16.944Z,5.06
2022-09-21T04:12:16.434Z,4.99
2022-09-21T04:13:16.929Z,4.82
2022-09-21T04:14:16.415Z,4.85
2022-09-21T04:15:16.868Z,4.85
2022-09-21T04:16:16.360Z,4.89
2022-09-21T04:17:16.806Z,4.78
2022-09-21T04:18:17.266Z,4.86
2022-09-21T04:19:16.699Z,4.81
2022-09-21T04:20:17.155Z,4.69
2022-09-21T04:21:16.616Z,4.74
2022-09-21T04:22:16.715Z,4.79
2022-09-21T04:23:17.164Z,4.69
2022-09-21T04:24:16.579Z,4.69
2022-09-21T04:25:17.036Z,4.60
2022-09-21T04:26:16.501Z,4.55
2022-09-21T04:27:16.994Z,4.63
2022-09-21T04:28:16.445Z,4.64
2022-09-21T04:29:16.908Z,4.63
2022-09-21T04:30:16.350Z,4.68
2022-09-21T04:31:16.838Z,4.74
2022-09-21T04:32:16.332Z,4.64
2022-09-21T04:33:16.756Z,4.69
2022-09-21T04:34:17.176Z,4.68
2022-09-21T04:35:16.592Z,4.65
2022-09-21T04:36:17.024Z,4.61
2022-09-21T04:37:16.459Z,4.65
2022-09-21T04:38:16.898Z,4.69
2022-09-21T04:39:16.329Z,4.67
2022-09-21T04:40:16.830Z,4.68
2022-09-21T04:41:16.374Z,4.72
2022-09-21T04:42:16.417Z,4.65
2022-09-21T04:43:19.626Z,4.65
2022-09-21T04:44:17.121Z,4.53
2022-09-21T04:45:16.635Z,4.54
2022-09-21T04:46:17.142Z,4.53
2022-09-21T04:47:16.694Z,4.51
2022-09-21T04:48:17.112Z,4.53
2022-09-21T04:49:16.584Z,4.55
2022-09-21T04:50:17.021Z,4.41
2022-09-21T04:51:16.434Z,4.46
2022-09-21T04:52:19.071Z,4.46
2022-09-21T04:53:16.699Z,4.23
2022-09-21T04:54:17.141Z,4.23
2022-09-21T04:55:16.595Z,4.26
2022-09-21T04:56:17.044Z,4.36
2022-09-21T04:57:16.517Z,4.36
2022-09-21T04:58:19.276Z,4.33
2022-09-21T04:59:16.955Z,4.36
2022-09-21T05:00:16.397Z,4.40
2022-09-21T05:01:16.876Z,4.43
2022-09-21T05:02:16.382Z,4.44
2022-09-21T05:03:16.853Z,4.40
2022-09-21T05:04:16.330Z,4.44
2022-09-21T05:05:16.744Z,4.42
2022-09-21T05:06:17.199Z,4.41
2022-09-21T05:07:16.633Z,4.40
2022-09-21T05:08:17.073Z,4.41
2022-09-21T05:09:16.534Z,4.37
2022-09-21T05:10:16.999Z,4.27
2022-09-21T05:11:16.467Z,4.30
2022-09-21T05:12:16.295Z,4.36
2022-09-21T05:13:19.688Z,4.33
2022-09-21T05:14:16.297Z,4.36
2022-09-21T05:15:16.759Z,4.36
2022-09-21T05:16:17.200Z,4.37
2022-09-21T05:17:16.635Z,4.41
2022-09-21T05:18:17.086Z,4.36
2022-09-21T05:19:16.511Z,4.36
2022-09-21T05:20:16.936Z,4.38
2022-09-21T05:21:16.355Z,4.38
2022-09-21T05:22:17.038Z,4.44
2022-09-21T05:23:16.930Z,4.43
2022-09-21T05:24:16.442Z,4.43
2022-09-21T05:25:16.915Z,4.46
2022-09-21T05:26:16.372Z,4.40
2022-09-21T05:27:16.886Z,4.37
2022-09-21T05:28:16.363Z,4.48
2022-09-21T05:29:16.800Z,4.44
2022-09-21T05:30:17.263Z,4.46
2022-09-21T05:31:17.889Z,4.50
2022-09-21T05:32:16.605Z,4.44
2022-09-21T05:33:17.068Z,4.47
2022-09-21T05:34:16.516Z,4.40
2022-09-21T05:35:16.939Z,4.51
2022-09-21T05:36:16.365Z,4.54
2022-09-21T05:37:16.795Z,4.54
2022-09-21T05:38:17.233Z,4.46
2022-09-21T05:39:16.741Z,4.46
2022-09-21T05:40:17.267Z,4.33
2022-09-21T05:41:16.832Z,4.19
2022-09-21T05:42:17.215Z,4.19
2022-09-21T05:43:16.686Z,4.19
2022-09-21T05:44:17.135Z,4.16
2022-09-21T05:45:16.556Z,4.16
2022-09-21T05:46:17.026Z,4.24
2022-09-21T05:47:16.517Z,4.33
2022-09-21T05:48:16.953Z,4.33
2022-09-21T05:49:16.393Z,4.31
2022-09-21T05:50:16.818Z,4.21
2022-09-21T05:51:17.288Z,4.21
2022-09-21T05:52:16.993Z,4.21
2022-09-21T05:53:16.483Z,4.58
2022-09-21T05:54:16.972Z,4.17
2022-09-21T05:55:16.452Z,4.17
2022-09-21T05:56:16.983Z,4.34
2022-09-21T05:57:16.517Z,4.34
2022-09-21T05:58:16.948Z,4.47
2022-09-21T05:59:16.400Z,4.30
2022-09-21T06:00:16.829Z,4.19
2022-09-21T06:01:17.298Z,4.28
2022-09-21T06:02:16.761Z,4.34
2022-09-21T06:03:17.866Z,4.30
2022-09-21T06:04:16.389Z,4.33
2022-09-21T06:05:16.836Z,4.36
2022-09-21T06:06:16.287Z,4.26
2022-09-21T06:07:16.732Z,4.14
2022-09-21T06:08:17.211Z,4.21
2022-09-21T06:09:16.661Z,4.20
2022-09-21T06:10:17.148Z,4.28
2022-09-21T06:11:16.618Z,4.43
2022-09-21T06:12:16.383Z,4.50
2022-09-21T06:13:16.818Z,4.36
2022-09-21T06:14:17.252Z,4.47
2022-09-21T06:15:16.730Z,4.47
2022-09-21T06:16:17.226Z,4.57
2022-09-21T06:17:16.800Z,4.55
2022-09-21T06:18:18.273Z,4.33
2022-09-21T06:19:16.843Z,4.38
2022-09-21T06:20:16.306Z,4.50
2022-09-21T06:21:16.785Z,4.46
2022-09-21T06:22:17.037Z,4.36
2022-09-21T06:23:16.491Z,4.46
2022-09-21T06:24:16.959Z,4.47
2022-09-21T06:25:16.426Z,4.44
2022-09-21T06:26:16.859Z,4.40
2022-09-21T06:27:16.316Z,4.47
2022-09-21T06:28:16.736Z,4.55
2022-09-21T06:29:17.151Z,4.55
2022-09-21T06:30:16.589Z,4.46
2022-09-21T06:31:17.034Z,4.44
2022-09-21T06:32:17.029Z,4.48
2022-09-21T06:33:16.475Z,4.57
2022-09-21T06:34:16.939Z,4.60
2022-09-21T06:35:16.392Z,4.61
2022-09-21T06:36:16.865Z,4.38
2022-09-21T06:37:16.310Z,4.38
2022-09-21T06:38:16.797Z,4.33
2022-09-21T06:39:17.272Z,4.36
2022-09-21T06:40:16.753Z,4.34
2022-09-21T06:41:20.955Z,4.36
2022-09-21T06:42:16.672Z,4.44
2022-09-21T06:43:17.111Z,4.55
2022-09-21T06:44:16.553Z,4.57
2022-09-21T06:45:17.025Z,4.43
2022-09-21T06:46:16.484Z,4.40
2022-09-21T06:47:17.044Z,4.48
2022-09-21T06:48:16.510Z,4.40
2022-09-21T06:49:16.965Z,4.54
2022-09-21T06:50:16.426Z,4.55
2022-09-21T06:51:16.884Z,4.48
2022-09-21T06:52:16.507Z,4.48
2022-09-21T06:53:16.952Z,4.50
2022-09-21T06:54:16.432Z,4.55
2022-09-21T06:55:16.871Z,4.78
2022-09-21T06:56:16.326Z,4.68
2022-09-21T06:57:16.743Z,4.68
2022-09-21T06:58:17.178Z,4.71
2022-09-21T06:59:16.618Z,4.68
2022-09-21T07:00:17.048Z,4.79
2022-09-21T07:01:16.598Z,4.88
2022-09-21T07:02:17.107Z,4.88
2022-09-21T07:03:16.673Z,5.00
2022-09-21T07:04:17.917Z,5.09
2022-09-21T07:05:17.270Z,5.16
2022-09-21T07:06:16.763Z,5.14
2022-09-21T07:07:17.219Z,5.00
2022-09-21T07:10:20.007Z,4.93
2022-09-21T07:11:16.452Z,4.79
2022-09-21T07:12:16.841Z,4.74
2022-09-21T07:13:17.270Z,5.02
2022-09-21T07:14:16.717Z,4.92
2022-09-21T07:15:17.158Z,4.91
2022-09-21T07:16:16.666Z,5.05
2022-09-21T07:17:17.236Z,4.98
2022-09-21T07:18:16.712Z,4.71
2022-09-21T07:19:17.162Z,4.78
2022-09-21T07:20:16.637Z,4.85
2022-09-21T07:21:17.116Z,4.86
2022-09-21T07:22:16.759Z,5.09
2022-09-21T07:23:17.246Z,5.09
2022-09-21T07:24:16.687Z,4.95
2022-09-21T07:25:17.111Z,4.86
2022-09-21T07:26:16.528Z,4.96
2022-09-21T07:27:16.979Z,4.86
2022-09-21T07:28:16.449Z,5.06
2022-09-21T07:29:16.869Z,5.02
2022-09-21T07:30:16.314Z,5.13
2022-09-21T07:31:16.839Z,5.10
2022-09-21T07:32:16.572Z,5.03
2022-09-21T07:33:17.031Z,5.05
2022-09-21T07:34:16.497Z,4.99
2022-09-21T07:35:16.941Z,4.98
2022-09-21T07:36:16.392Z,5.06
2022-09-21T07:37:16.860Z,5.16
2022-09-21T07:38:16.304Z,5.16
2022-09-21T07:39:16.748Z,5.09
2022-09-21T07:40:18.416Z,5.00
2022-09-21T07:41:16.529Z,5.17
2022-09-21T07:42:16.759Z,5.09
2022-09-21T07:43:17.178Z,5.14
2022-09-21T07:44:16.638Z,5.14
2022-09-21T07:45:17.061Z,5.26
2022-09-21T07:46:16.665Z,5.13
2022-09-21T07:47:17.127Z,5.30
2022-09-21T07:48:16.588Z,5.40
2022-09-21T07:49:17.097Z,5.60
2022-09-21T07:50:16.581Z,5.45
2022-09-21T07:51:17.035Z,5.45
2022-09-21T07:52:16.310Z,5.37
2022-09-21T07:53:16.750Z,5.47
2022-09-21T07:54:17.182Z,5.35
2022-09-21T07:55:16.620Z,5.24
2022-09-21T07:56:17.038Z,5.12
2022-09-21T07:57:16.584Z,5.14
2022-09-21T07:58:17.056Z,5.40
2022-09-21T07:59:16.565Z,5.50
2022-09-21T08:00:17.017Z,5.31
2022-09-21T08:01:16.533Z,5.35
2022-09-21T08:02:16.566Z,5.30
2022-09-21T08:03:17.234Z,5.35
2022-09-21T08:04:16.744Z,5.30
2022-09-21T08:05:17.235Z,5.33
2022-09-21T08:06:16.785Z,5.35
2022-09-21T08:07:17.245Z,5.68
2022-09-21T08:08:16.669Z,5.65
2022-09-21T08:09:17.094Z,5.74
2022-09-21T08:10:16.522Z,5.77
2022-09-21T08:11:16.956Z,5.72
2022-09-21T08:12:16.671Z,5.81
2022-09-21T08:13:17.087Z,5.88
2022-09-21T08:14:16.564Z,5.65
2022-09-21T08:15:37.324Z,6.00
2022-09-21T08:16:16.680Z,6.05
2022-09-21T08:17:17.274Z,6.03
2022-09-21T08:18:16.748Z,5.92
2022-09-21T08:19:17.207Z,5.84
2022-09-21T08:20:16.658Z,5.92
2022-09-21T08:21:17.100Z,5.82
2022-09-21T08:22:16.662Z,5.82
2022-09-21T08:23:17.113Z,5.71
2022-09-21T08:24:16.541Z,5.75
2022-09-21T08:25:16.994Z,6.00
2022-09-21T08:26:16.554Z,5.86
2022-09-21T08:27:16.977Z,5.92
2022-09-21T08:28:16.432Z,6.12
2022-09-21T08:29:16.868Z,6.24
2022-09-21T08:30:16.340Z,6.19
2022-09-21T08:31:16.817Z,6.34
2022-09-21T08:32:33.247Z,6.33
2022-09-21T08:33:16.635Z,6.52
2022-09-21T08:34:17.120Z,6.34
2022-09-21T08:35:16.644Z,6.33
2022-09-21T08:36:17.106Z,6.23
2022-09-21T08:37:16.540Z,6.38
2022-09-21T08:38:16.959Z,6.51
2022-09-21T08:39:16.375Z,6.37
2022-09-21T08:40:16.946Z,6.45
2022-09-21T08:41:16.490Z,6.33
2022-09-21T08:42:16.440Z,6.43
2022-09-21T08:43:16.876Z,6.47
2022-09-21T08:44:16.341Z,6.54
2022-09-21T08:45:16.798Z,6.30
2022-09-21T08:46:17.315Z,6.43
2022-09-21T08:47:16.825Z,6.71
2022-09-21T08:48:17.292Z,6.76
2022-09-21T08:49:16.765Z,6.92
2022-09-21T08:50:17.231Z,7.02
2022-09-21T08:51:16.727Z,6.75
2022-09-21T08:52:16.959Z,6.65
2022-09-21T08:53:16.713Z,6.63
2022-09-21T08:54:17.199Z,6.71
2022-09-21T08:55:17.676Z,6.88
2022-09-21T08:56:16.323Z,7.19
2022-09-21T08:57:16.756Z,6.84
2022-09-21T08:58:17.208Z,6.72
2022-09-21T08:59:16.643Z,6.76
2022-09-21T09:00:17.127Z,6.96
2022-09-21T09:01:16.602Z,7.09
2022-09-21T09:02:17.252Z,6.81
2022-09-21T09:03:16.853Z,6.89
2022-09-21T09:04:16.316Z,7.10
2022-09-21T09:05:16.800Z,6.99
2022-09-21T09:06:17.242Z,6.85
2022-09-21T09:07:16.692Z,7.02
2022-09-21T09:08:17.118Z,7.24
2022-09-21T09:09:16.543Z,7.16
2022-09-21T09:10:16.983Z,7.40
2022-09-21T09:11:16.403Z,7.38
2022-09-21T09:12:16.880Z,7.62
2022-09-21T09:13:16.322Z,7.66
2022-09-21T09:14:16.812Z,7.66
2022-09-21T09:15:17.309Z,7.45
2022-09-21T09:16:16.861Z,7.54
2022-09-21T09:17:16.499Z,7.45
2022-09-21T09:18:16.981Z,7.51
2022-09-21T09:19:16.445Z,7.69
2022-09-21T09:20:16.948Z,7.78
2022-09-21T09:21:20.069Z,7.89
2022-09-21T09:22:17.044Z,7.99
2022-09-21T09:23:16.511Z,8.05
2022-09-21T09:24:16.930Z,8.09
2022-09-21T09:25:16.348Z,7.64
2022-09-21T09:26:16.795Z,7.75
2022-09-21T09:27:17.240Z,7.89
2022-09-21T09:28:16.699Z,8.16
2022-09-21T09:29:17.197Z,8.16
2022-09-21T09:30:16.660Z,8.34
2022-09-21T09:31:17.174Z,8.44
2022-09-21T09:32:16.823Z,8.08
2022-09-21T09:33:17.296Z,8.14
2022-09-21T09:34:16.801Z,8.03
2022-09-21T09:35:17.256Z,8.26
2022-09-21T09:36:16.670Z,8.19
2022-09-21T09:37:17.109Z,8.13
2022-09-21T09:38:16.556Z,8.21
2022-09-21T09:39:16.994Z,8.13
2022-09-21T09:40:16.474Z,8.21
2022-09-21T09:41:16.984Z,8.40
2022-09-21T09:42:16.631Z,8.44
2022-09-21T09:43:17.103Z,8.41
2022-09-21T09:44:16.567Z,8.36
2022-09-21T09:45:17.023Z,8.30
2022-09-21T09:46:16.553Z,8.29
2022-09-21T09:47:17.149Z,8.31
2022-09-21T09:48:16.650Z,8.43
2022-09-21T09:49:17.111Z,8.44
2022-09-21T09:50:16.542Z,8.51
2022-09-21T09:51:16.974Z,8.47
2022-09-21T09:52:16.646Z,8.52
2022-09-21T09:53:17.068Z,8.64
2022-09-21T09:54:16.510Z,8.79
2022-09-21T09:55:16.968Z,8.74
2022-09-21T09:56:16.398Z,8.76
2022-09-21T09:57:16.873Z,8.86
2022-09-21T09:58:16.361Z,8.91
2022-09-21T09:59:16.839Z,8.88
2022-09-21T10:00:16.345Z,8.84
2022-09-21T10:01:16.842Z,8.95
2022-09-21T10:02:16.422Z,9.20
2022-09-21T10:03:16.871Z,9.29
2022-09-21T10:04:16.330Z,9.29
2022-09-21T10:05:16.811Z,9.23
2022-09-21T10:06:17.243Z,9.20
2022-09-21T10:07:16.666Z,9.38
2022-09-21T10:08:17.095Z,9.34
2022-09-21T10:09:16.518Z,9.47
2022-09-21T10:10:16.962Z,9.43
2022-09-21T10:11:16.431Z,9.47
2022-09-21T10:12:16.635Z,9.57
2022-09-21T10:13:17.125Z,9.53
2022-09-21T10:14:16.596Z,9.48
2022-09-21T10:15:17.064Z,9.55
2022-09-21T10:16:16.653Z,9.66
2022-09-21T10:17:16.286Z,9.64
2022-09-21T10:18:16.715Z,9.74
2022-09-21T10:19:17.168Z,9.84
2022-09-21T10:20:16.633Z,9.89
2022-09-21T10:21:17.052Z,9.89
2022-09-21T10:22:16.632Z,9.88
2022-09-21T10:23:17.049Z,10.03
2022-09-21T10:24:16.481Z,10.13
2022-09-21T10:25:16.948Z,10.17
2022-09-21T10:26:16.399Z,10.26
2022-09-21T10:27:16.870Z,10.52
2022-09-21T10:28:16.314Z,10.45
2022-09-21T10:29:16.787Z,10.47
2022-09-21T10:30:17.273Z,10.52
2022-09-21T10:31:16.720Z,10.48
2022-09-21T10:32:16.942Z,10.54
2022-09-21T10:33:16.359Z,10.51
2022-09-21T10:34:16.783Z,10.54
2022-09-21T10:35:17.206Z,10.60
2022-09-21T10:36:16.667Z,10.64
2022-09-21T10:37:17.108Z,10.56
2022-09-21T10:38:21.284Z,10.70
2022-09-21T10:39:17.261Z,10.79
2022-09-21T10:40:16.756Z,10.85
2022-09-21T10:41:16.310Z,10.77
2022-09-21T10:42:16.787Z,10.92
2022-09-21T10:43:17.250Z,11.00
2022-09-21T10:44:16.706Z,11.06
2022-09-21T10:45:17.188Z,11.30
2022-09-21T10:46:16.657Z,11.02
2022-09-21T10:47:17.191Z,11.03
2022-09-21T10:48:16.683Z,11.22
2022-09-21T10:49:17.131Z,11.27
2022-09-21T10:50:16.604Z,11.70
2022-09-21T10:51:17.026Z,11.55
2022-09-21T10:52:17.009Z,11.50
2022-09-21T10:53:16.460Z,11.49
2022-09-21T10:54:16.911Z,11.64
2022-09-21T10:55:16.420Z,11.40
2022-09-21T10:56:17.846Z,11.42
2022-09-21T10:57:16.505Z,11.63
2022-09-21T10:58:17.091Z,11.67
2022-09-21T10:59:16.555Z,11.72
2022-09-21T11:00:17.048Z,11.85
2022-09-21T11:01:16.511Z,11.88
2022-09-21T11:02:17.289Z,11.89
2022-09-21T11:03:16.812Z,11.91
2022-09-21T11:04:17.238Z,11.89
2022-09-21T11:05:16.683Z,12.02
2022-09-21T11:06:17.101Z,12.03
2022-09-21T11:07:16.526Z,12.15
2022-09-21T11:08:17.018Z,12.06
2022-09-21T11:09:16.466Z,12.08
2022-09-21T11:10:16.933Z,12.30
2022-09-21T11:11:16.408Z,12.23
2022-09-21T11:12:16.826Z,12.28
2022-09-21T11:13:16.291Z,12.51
2022-09-21T11:14:16.742Z,12.51
2022-09-21T11:15:17.221Z,12.33
2022-09-21T11:16:16.738Z,12.29
2022-09-21T11:17:16.291Z,12.25
2022-09-21T11:18:16.727Z,12.28
2022-09-21T11:19:17.163Z,12.50
2022-09-21T11:20:16.642Z,12.51
2022-09-21T11:21:17.081Z,12.61
2022-09-21T11:22:16.742Z,12.49
2022-09-21T11:23:17.201Z,12.61
2022-09-21T11:24:16.640Z,12.67
2022-09-21T11:25:17.087Z,12.57
2022-09-21T11:26:16.562Z,12.50
2022-09-21T11:27:17.077Z,12.58
2022-09-21T11:28:16.587Z,12.63
2022-09-21T11:29:17.132Z,12.68
2022-09-21T11:30:16.675Z,12.71
2022-09-21T11:31:16.517Z,12.61
2022-09-21T11:32:16.727Z,12.84
2022-09-21T11:33:17.159Z,12.81
2022-09-21T11:34:16.584Z,12.64
2022-09-21T11:35:17.035Z,12.68
2022-09-21T11:36:16.481Z,12.85
2022-09-21T11:37:16.944Z,13.09
2022-09-21T11:38:16.410Z,12.75
2022-09-21T11:39:16.860Z,12.84
2022-09-21T11:40:16.363Z,12.64
2022-09-21T11:41:16.930Z,12.77
2022-09-21T11:42:17.264Z,13.01
2022-09-21T11:43:16.841Z,13.40
2022-09-21T11:44:18.555Z,13.34
2022-09-21T11:45:16.771Z,13.18
2022-09-21T11:46:17.224Z,13.22
2022-09-21T11:47:16.841Z,13.27
2022-09-21T11:48:17.260Z,13.16
2022-09-21T11:49:16.701Z,13.05
2022-09-21T11:50:30.087Z,13.04
2022-09-21T11:51:16.492Z,12.99
2022-09-21T11:52:16.648Z,13.25
2022-09-21T11:53:17.147Z,13.22
2022-09-21T11:54:16.604Z,13.26
2022-09-21T11:55:17.061Z,13.26
2022-09-21T11:56:16.547Z,13.30
2022-09-21T11:57:16.999Z,13.27
2022-09-21T11:58:16.494Z,13.25
2022-09-21T11:59:16.926Z,13.29
2022-09-21T12:00:16.429Z,13.44
2022-09-21T12:01:17.026Z,13.42
2022-09-21T12:02:16.456Z,13.39
2022-09-21T12:03:17.096Z,13.30
2022-09-21T12:04:16.554Z,13.22
2022-09-21T12:05:16.999Z,13.32
2022-09-21T12:06:16.442Z,13.34
2022-09-21T12:07:16.931Z,13.27
2022-09-21T12:08:16.414Z,13.27
2022-09-21T12:09:16.871Z,13.43
2022-09-21T12:10:16.337Z,13.51
2022-09-21T12:11:16.894Z,13.44
2022-09-21T12:12:16.554Z,13.44
2022-09-21T12:13:17.010Z,13.25
2022-09-21T12:14:16.434Z,13.15
2022-09-21T12:15:16.947Z,13.11
2022-09-21T12:16:16.539Z,13.12
2022-09-21T12:17:17.070Z,13.15
2022-09-21T12:18:16.500Z,13.18
2022-09-21T12:19:16.918Z,13.21
2022-09-21T12:20:16.366Z,13.26
2022-09-21T12:21:16.804Z,13.40
2022-09-21T12:22:16.408Z,13.43
2022-09-21T12:23:16.871Z,13.47
2022-09-21T12:24:16.321Z,13.55
2022-09-21T12:25:16.792Z,13.55
2022-09-21T12:26:17.267Z,13.81
2022-09-21T12:27:16.751Z,13.94
2022-09-21T12:28:17.216Z,13.95
2022-09-21T12:29:16.683Z,13.98
2022-09-21T12:30:17.408Z,14.07
2022-09-21T12:31:16.968Z,13.94
2022-09-21T12:32:17.040Z,13.85
2022-09-21T12:33:16.484Z,13.88
2022-09-21T12:34:16.923Z,14.26
2022-09-21T12:35:16.367Z,14.28
2022-09-21T12:36:16.825Z,14.18
2022-09-21T12:37:17.280Z,14.13
2022-09-21T12:38:16.764Z,14.15
2022-09-21T12:39:17.241Z,14.08
2022-09-21T12:40:16.885Z,14.07
2022-09-21T12:41:16.465Z,14.13
2022-09-21T12:42:16.752Z,14.11
2022-09-21T12:43:17.192Z,14.15
2022-09-21T12:44:16.681Z,14.30
2022-09-21T12:45:17.171Z,14.01
2022-09-21T12:46:16.668Z,13.87
2022-09-21T12:47:17.259Z,13.82
2022-09-21T12:48:16.721Z,13.76
2022-09-21T12:49:17.139Z,13.71
2022-09-21T12:50:16.632Z,13.71
2022-09-21T12:51:17.116Z,13.68
2022-09-21T12:52:16.424Z,13.76
2022-09-21T12:53:16.913Z,13.77
2022-09-21T12:54:16.372Z,13.74
2022-09-21T12:55:17.454Z,13.76
2022-09-21T12:56:17.022Z,13.50
2022-09-21T12:57:30.319Z,13.49
2022-09-21T12:58:16.935Z,13.46
2022-09-21T12:59:16.429Z,13.42
2022-09-21T13:00:16.859Z,13.50
2022-09-21T13:01:16.388Z,13.49
2022-09-21T13:02:17.302Z,13.54
2022-09-21T13:03:17.175Z,13.46
2022-09-21T13:04:16.631Z,13.39
2022-09-21T13:05:17.126Z,13.46
2022-09-21T13:06:16.603Z,13.46
2022-09-21T13:07:17.066Z,13.50
2022-09-21T13:08:16.541Z,13.57
2022-09-21T13:09:16.990Z,13.64
2022-09-21T13:10:16.468Z,13.80
2022-09-21T13:11:16.918Z,14.00
2022-09-21T13:12:16.291Z,13.76
2022-09-21T13:13:16.745Z,13.71
2022-09-21T13:14:17.231Z,13.74